Time;durP1;ratioP1;P1;durP2;ratioP2;P2;SDS_P1;SDS_P2;PMS_P1;PMS_P2;Temp;Humidity;BMP_temperature;BMP_pressure;BME280_temperature;BME280_humidity;BME280_pressure;Samples;Min_cycle;Max_cycle;Signal;HPM_P1;HPM_P2
2023/03/17 00:01:02;;;;;;;0.55;0.55;;;;;;;3.42;44.35;100483.59;5047370;28;20022;-64
2023/03/17 00:03:30;;;;;;;0.50;0.50;;;;;;;3.56;44.27;100484.72;5046584;28;20032;-64
2023/03/17 00:05:58;;;;;;;0.50;0.50;;;;;;;3.63;44.22;100498.56;5047141;28;20473;-70
2023/03/17 00:08:30;;;;;;;0.50;0.50;;;;;;;3.56;44.74;100476.19;5046137;28;20021;-65
2023/03/17 00:10:56;;;;;;;0.60;0.60;;;;;;;3.49;44.80;100446.06;5047166;28;20029;-66
2023/03/17 00:13:22;;;;;;;0.50;0.50;;;;;;;3.51;45.33;100457.25;5046925;28;20040;-65
2023/03/17 00:15:53;;;;;;;0.50;0.50;;;;;;;3.52;45.59;100471.78;5046582;28;20045;-66
2023/03/17 00:18:19;;;;;;;0.50;0.50;;;;;;;3.31;46.17;100457.66;5046640;28;20026;-65
2023/03/17 00:20:46;;;;;;;0.50;0.50;;;;;;;3.34;46.38;100460.28;5046893;28;20021;-64
2023/03/17 00:23:19;;;;;;;0.50;0.50;;;;;;;3.43;46.89;100467.34;5046827;28;20029;-65
2023/03/17 00:25:45;;;;;;;0.50;0.50;;;;;;;3.47;47.76;100462.31;5061994;28;20076;-63
2023/03/17 00:28:18;;;;;;;0.50;0.50;;;;;;;3.50;49.08;100442.69;5046845;28;20045;-68
2023/03/17 00:30:44;;;;;;;0.50;0.50;;;;;;;3.45;49.87;100437.44;5047069;28;20032;-68
2023/03/17 00:33:10;;;;;;;0.50;0.50;;;;;;;3.41;51.34;100421.09;5046633;28;20079;-69
2023/03/17 00:35:36;;;;;;;0.50;0.50;;;;;;;3.33;52.26;100438.03;5046539;28;20477;-70
2023/03/17 00:38:01;;;;;;;0.50;0.50;;;;;;;3.14;53.05;100447.91;5046580;28;20439;-66
2023/03/17 00:40:29;;;;;;;0.60;0.60;;;;;;;3.06;53.28;100424.63;5046778;28;20029;-65
2023/03/17 00:42:56;;;;;;;0.50;0.50;;;;;;;3.15;54.00;100434.22;5046689;28;20031;-65
2023/03/17 00:45:22;;;;;;;0.50;0.50;;;;;;;3.11;54.61;100440.13;5046467;28;20034;-66
2023/03/17 00:47:50;;;;;;;0.50;0.50;;;;;;;3.09;54.79;100413.56;5046407;28;20067;-65
2023/03/17 00:50:21;;;;;;;1.67;1.58;;;;;;;3.12;55.38;100426.47;5046337;28;20026;-67
2023/03/17 00:52:47;;;;;;;0.60;0.60;;;;;;;2.70;55.91;100399.88;5046149;28;20072;-63
2023/03/17 00:55:14;;;;;;;0.50;0.50;;;;;;;2.99;56.27;100412.50;5044684;28;20032;-69
2023/03/17 00:57:40;;;;;;;0.50;0.50;;;;;;;3.00;56.49;100416.81;5046124;28;20049;-65
2023/03/17 01:00:16;;;;;;;0.50;0.50;;;;;;;2.93;56.90;100397.84;5046313;28;20029;-62
2023/03/17 01:02:42;;;;;;;0.40;0.40;;;;;;;2.99;56.99;100397.09;5042938;28;20026;-63
2023/03/17 01:05:07;;;;;;;0.50;0.50;;;;;;;2.95;57.38;100396.19;5045867;28;20060;-65
2023/03/17 01:07:33;;;;;;;0.50;0.50;;;;;;;3.00;57.38;100375.78;5061645;28;20047;-69
2023/03/17 01:10:00;;;;;;;0.50;0.50;;;;;;;2.91;57.67;100358.47;5045992;28;20041;-66
2023/03/17 01:12:26;;;;;;;0.50;0.50;;;;;;;3.04;57.32;100362.16;5045980;28;20036;-66
2023/03/17 01:14:52;;;;;;;0.50;0.50;;;;;;;3.01;57.67;100381.75;5059888;28;20092;-64
2023/03/17 01:17:18;;;;;;;0.50;0.50;;;;;;;2.92;57.44;100388.41;5045657;28;20042;-62
2023/03/17 01:19:44;;;;;;;0.45;0.45;;;;;;;2.72;58.34;100370.88;5045971;28;20030;-63
2023/03/17 01:22:10;;;;;;;0.50;0.50;;;;;;;2.80;57.95;100365.03;5045819;28;20106;-65
2023/03/17 01:24:36;;;;;;;0.50;0.50;;;;;;;2.91;57.81;100372.97;5045558;28;20477;-63
2023/03/17 01:27:02;;;;;;;0.50;0.50;;;;;;;3.16;57.33;100353.88;5045494;28;20021;-64
2023/03/17 01:29:27;;;;;;;0.50;0.50;;;;;;;3.27;56.77;100345.53;5044215;28;20456;-62
2023/03/17 01:31:53;;;;;;;0.50;0.50;;;;;;;3.06;57.26;100345.13;5045841;28;20021;-63
2023/03/17 01:34:19;;;;;;;0.50;0.50;;;;;;;3.06;57.22;100331.41;5045557;28;20394;-62
2023/03/17 01:36:45;;;;;;;0.50;0.50;;;;;;;3.42;56.56;100345.00;5045494;28;20037;-62
2023/03/17 01:39:11;;;;;;;0.60;0.60;;;;;;;2.90;57.28;100355.84;5045343;28;20033;-63
2023/03/17 01:41:38;;;;;;;0.50;0.50;;;;;;;3.40;56.21;100319.28;5045347;28;20025;-67
2023/03/17 01:44:06;;;;;;;0.50;0.50;;;;;;;3.49;56.29;100326.28;5045435;28;20025;-67
2023/03/17 01:46:34;;;;;;;0.50;0.50;;;;;;;3.54;56.71;100323.81;5045183;28;20084;-65
2023/03/17 01:49:13;;;;;;;0.50;0.50;;;;;;;3.49;57.45;100303.19;5060870;28;20026;-66
2023/03/17 01:52:00;;;;;;;0.50;0.50;;;;;;;3.26;58.14;100313.84;5060750;28;20029;-62
2023/03/17 01:54:33;;;;;;;0.50;0.50;;;;;;;3.34;58.92;100324.28;5045549;28;20029;-64
2023/03/17 01:57:06;;;;;;;0.50;0.50;;;;;;;3.11;60.34;100306.72;5044722;28;20049;-67
2023/03/17 01:59:35;;;;;;;0.50;0.50;;;;;;;2.89;61.74;100313.94;5044733;28;20022;-67
2023/03/17 02:02:05;;;;;;;0.50;0.50;;;;;;;2.66;63.02;100308.31;5044444;28;20022;-64
2023/03/17 02:04:32;;;;;;;0.45;0.45;;;;;;;2.15;64.51;100318.25;5045374;28;20433;-61
2023/03/17 02:06:58;;;;;;;0.50;0.50;;;;;;;2.12;66.33;100306.25;5045271;28;20388;-62
2023/03/17 02:09:24;;;;;;;0.50;0.50;;;;;;;2.20;67.61;100284.25;5045093;28;20046;-64
2023/03/17 02:11:49;;;;;;;0.50;0.50;;;;;;;1.88;69.22;100289.44;5045382;28;20052;-63
2023/03/17 02:14:15;;;;;;;0.52;0.52;;;;;;;1.73;70.82;100284.78;5060591;28;20029;-68
2023/03/17 02:16:43;;;;;;;0.50;0.50;;;;;;;1.21;72.40;100292.78;5044815;28;20056;-64
2023/03/17 02:19:09;;;;;;;0.50;0.50;;;;;;;1.58;72.55;100275.88;5044742;28;20026;-67
2023/03/17 02:21:53;;;;;;;0.50;0.50;;;;;;;1.40;73.38;100271.16;5045059;28;20468;-66
2023/03/17 02:24:31;;;;;;;0.50;0.50;;;;;;;1.45;73.41;100274.66;5045131;28;20044;-64
2023/03/17 02:27:02;;;;;;;1.60;1.50;;;;;;;1.35;74.06;100234.34;5063363;28;20079;-65
2023/03/17 02:29:27;;;;;;;0.70;0.70;;;;;;;1.39;73.77;100274.50;5049157;28;20025;-65
2023/03/17 02:31:53;;;;;;;0.52;0.52;;;;;;;1.64;73.00;100262.38;5048848;28;20039;-65
2023/03/17 02:34:19;;;;;;;0.50;0.50;;;;;;;1.45;72.92;100266.16;5048875;28;20029;-64
2023/03/17 02:36:45;;;;;;;0.60;0.60;;;;;;;1.76;71.99;100258.41;5047746;28;20052;-65
2023/03/17 02:39:12;;;;;;;0.50;0.50;;;;;;;1.75;71.72;100266.91;5048678;28;20077;-63
2023/03/17 02:41:37;;;;;;;0.50;0.50;;;;;;;1.84;71.65;100256.88;5047649;28;20545;-63
2023/03/17 02:44:03;;;;;;;0.50;0.50;;;;;;;1.87;71.29;100246.72;5048627;28;20540;-65
2023/03/17 02:46:29;;;;;;;0.50;0.50;;;;;;;2.12;70.86;100257.59;5048608;28;20108;-64
2023/03/17 02:48:55;;;;;;;0.50;0.50;;;;;;;1.82;71.82;100246.63;5048675;28;20067;-64
2023/03/17 02:51:20;;;;;;;0.50;0.50;;;;;;;1.89;72.14;100222.03;5048822;28;20377;-65
2023/03/17 02:53:46;;;;;;;0.50;0.50;;;;;;;2.04;72.39;100241.16;5048564;28;20028;-64
2023/03/17 02:56:11;;;;;;;0.50;0.50;;;;;;;1.89;73.30;100214.34;5048344;28;20081;-66
2023/03/17 02:58:36;;;;;;;0.50;0.50;;;;;;;1.64;74.35;100234.25;5062277;28;20258;-62
2023/03/17 03:01:02;;;;;;;0.50;0.50;;;;;;;1.71;74.95;100245.50;5048226;28;20026;-62
2023/03/17 03:03:28;;;;;;;0.50;0.50;;;;;;;1.77;74.97;100216.63;5048039;28;20056;-64
2023/03/17 03:05:54;;;;;;;0.50;0.50;;;;;;;1.88;75.10;100199.84;5048168;28;20053;-62
2023/03/17 03:08:20;;;;;;;0.47;0.47;;;;;;;1.82;74.81;100187.72;5048015;28;20055;-62
2023/03/17 03:10:46;;;;;;;0.50;0.50;;;;;;;1.94;74.99;100197.41;5048149;28;20033;-64
2023/03/17 03:13:11;;;;;;;0.50;0.50;;;;;;;1.93;75.06;100205.06;5061882;28;20026;-63
2023/03/17 03:15:40;;;;;;;0.50;0.50;;;;;;;2.03;74.76;100183.94;5047359;28;20037;-65
2023/03/17 03:18:06;;;;;;;0.50;0.50;;;;;;;1.79;75.03;100189.38;5062565;28;20029;-62
2023/03/17 03:20:31;;;;;;;1.20;1.20;;;;;;;2.13;73.93;100159.41;5047889;28;20025;-66
2023/03/17 03:22:57;;;;;;;0.50;0.50;;;;;;;2.25;72.65;100150.28;5047684;28;20021;-65
2023/03/17 03:25:22;;;;;;;0.50;0.50;;;;;;;2.16;73.21;100173.97;5047706;28;20049;-65
2023/03/17 03:27:48;;;;;;;1.25;1.25;;;;;;;2.31;72.51;100176.91;5047893;28;20017;-66
2023/03/17 03:30:13;;;;;;;1.15;1.15;;;;;;;2.25;72.51;100183.59;5047814;28;20083;-62
2023/03/17 03:32:39;;;;;;;0.50;0.50;;;;;;;2.47;71.30;100185.78;5047606;28;20029;-64
2023/03/17 03:35:05;;;;;;;0.50;0.50;;;;;;;2.51;70.73;100170.47;5047863;28;20033;-68
2023/03/17 03:37:30;;;;;;;0.50;0.50;;;;;;;2.61;69.79;100174.94;5061928;28;20022;-65
2023/03/17 03:39:56;;;;;;;0.50;0.50;;;;;;;2.57;69.66;100179.13;5046524;28;20060;-64
2023/03/17 03:42:21;;;;;;;0.47;0.47;;;;;;;2.51;69.64;100185.84;5047559;28;20025;-64
2023/03/17 03:44:46;;;;;;;0.50;0.50;;;;;;;2.62;69.22;100165.56;5047708;28;20025;-67
2023/03/17 03:47:12;;;;;;;0.50;0.50;;;;;;;2.58;69.31;100195.38;5047484;28;20091;-66
2023/03/17 03:49:37;;;;;;;0.50;0.50;;;;;;;2.45;69.73;100174.63;5047589;28;20052;-64
2023/03/17 03:52:03;;;;;;;0.50;0.50;;;;;;;2.72;68.28;100168.34;5047467;28;20052;-66
2023/03/17 03:54:28;;;;;;;0.50;0.50;;;;;;;2.78;67.66;100180.41;5047064;28;20094;-64
2023/03/17 03:56:54;;;;;;;0.50;0.50;;;;;;;2.58;68.34;100180.00;5047251;28;20021;-64
2023/03/17 03:59:19;;;;;;;0.40;0.40;;;;;;;2.77;67.28;100178.69;5047152;28;20085;-65
2023/03/17 04:01:45;;;;;;;0.50;0.50;;;;;;;2.76;66.69;100150.44;5047378;28;20113;-63
2023/03/17 04:04:10;;;;;;;0.50;0.50;;;;;;;2.95;65.86;100185.88;5047340;28;20022;-62
2023/03/17 04:06:36;;;;;;;0.50;0.50;;;;;;;3.09;65.41;100180.13;5047344;28;20036;-66
2023/03/17 04:09:02;;;;;;;0.50;0.50;;;;;;;2.88;66.20;100168.63;5047336;28;20077;-69
2023/03/17 04:11:27;;;;;;;0.50;0.50;;;;;;;2.93;65.68;100187.53;5045778;28;20033;-62
2023/03/17 04:13:53;;;;;;;0.50;0.50;;;;;;;3.21;64.38;100190.63;5046039;28;20029;-63
2023/03/17 04:16:18;;;;;;;0.50;0.50;;;;;;;2.85;66.37;100187.41;5046357;28;20048;-63
2023/03/17 04:18:43;;;;;;;0.50;0.50;;;;;;;3.03;65.57;100174.88;5046799;28;20017;-66
2023/03/17 04:21:09;;;;;;;0.50;0.50;;;;;;;2.92;65.31;100167.88;5046733;28;20100;-63
2023/03/17 04:23:35;;;;;;;0.50;0.50;;;;;;;2.81;66.25;100189.88;5046759;28;20568;-63
2023/03/17 04:26:01;;;;;;;0.50;0.50;;;;;;;2.81;66.45;100157.38;5046731;28;20089;-68
2023/03/17 04:28:26;;;;;;;0.50;0.50;;;;;;;2.79;67.54;100161.63;5046689;28;20075;-67
2023/03/17 04:30:52;;;;;;;0.50;0.50;;;;;;;2.28;69.90;100181.09;5061954;28;20025;-66
2023/03/17 04:33:19;;;;;;;0.50;0.50;;;;;;;2.15;71.56;100170.56;5046329;28;20400;-64
2023/03/17 04:35:44;;;;;;;0.50;0.50;;;;;;;2.06;72.77;100171.22;5046631;28;20029;-64
2023/03/17 04:38:12;;;;;;;0.50;0.50;;;;;;;1.60;74.79;100155.63;5046533;28;20496;-63
2023/03/17 04:40:37;;;;;;;0.50;0.50;;;;;;;1.85;74.34;100154.53;5046658;28;20091;-63
2023/03/17 04:43:02;;;;;;;0.50;0.50;;;;;;;1.83;75.33;100139.97;5044278;28;20021;-69
2023/03/17 04:45:28;;;;;;;0.50;0.50;;;;;;;1.65;76.18;100169.41;5046289;28;20029;-65
2023/03/17 04:47:53;;;;;;;0.50;0.50;;;;;;;1.72;76.64;100150.84;5046474;28;20402;-65
2023/03/17 04:50:19;;;;;;;0.63;0.63;;;;;;;1.64;77.46;100151.47;5046166;28;20028;-64
2023/03/17 04:52:44;;;;;;;0.50;0.50;;;;;;;1.52;77.83;100146.94;5046397;28;20085;-63
2023/03/17 04:55:10;;;;;;;0.50;0.50;;;;;;;1.48;78.74;100126.41;5044788;28;20032;-65
2023/03/17 04:57:36;;;;;;;0.90;0.90;;;;;;;1.32;79.42;100137.94;5061124;28;20025;-63
2023/03/17 05:00:06;;;;;;;0.50;0.50;;;;;;;1.42;79.45;100139.00;5046237;28;20028;-65
2023/03/17 05:02:31;;;;;;;0.50;0.50;;;;;;;1.28;80.11;100131.00;5046020;28;20027;-64
2023/03/17 05:04:57;;;;;;;0.50;0.50;;;;;;;1.38;80.64;100111.63;5061411;28;20029;-64
2023/03/17 05:07:22;;;;;;;0.50;0.50;;;;;;;1.41;80.61;100114.25;5045876;28;20406;-65
2023/03/17 05:09:48;;;;;;;0.50;0.50;;;;;;;1.32;81.09;100103.81;5045842;28;20029;-65
2023/03/17 05:12:13;;;;;;;0.50;0.50;;;;;;;1.52;80.80;100085.53;5045966;28;20017;-67
2023/03/17 05:14:39;;;;;;;0.50;0.50;;;;;;;1.52;80.78;100099.16;5044617;28;20030;-65
2023/03/17 05:17:06;;;;;;;0.50;0.50;;;;;;;1.59;81.31;100098.50;5045448;28;20045;-66
2023/03/17 05:19:31;;;;;;;0.50;0.50;;;;;;;1.48;81.53;100090.56;5045400;28;20420;-64
2023/03/17 05:21:57;;;;;;;0.50;0.50;;;;;;;1.67;81.31;100088.44;5045518;28;20029;-63
2023/03/17 05:24:22;;;;;;;0.50;0.50;;;;;;;1.43;82.30;100091.28;5044394;28;20032;-64
2023/03/17 05:26:48;;;;;;;0.50;0.50;;;;;;;1.53;82.52;100083.00;5045516;28;20459;-64
2023/03/17 05:29:13;;;;;;;0.50;0.50;;;;;;;1.71;81.59;100077.44;5045702;28;20044;-64
2023/03/17 05:31:39;;;;;;;0.50;0.50;;;;;;;1.46;82.67;100073.44;5045568;28;20036;-66
2023/03/17 05:34:04;;;;;;;0.47;0.47;;;;;;;1.75;82.00;100070.69;5045419;28;20497;-65
2023/03/17 05:36:30;;;;;;;0.50;0.50;;;;;;;1.68;82.18;100071.38;5045185;28;20022;-65
2023/03/17 05:38:56;;;;;;;0.50;0.50;;;;;;;1.60;83.12;100078.88;5045358;28;20508;-66
2023/03/17 05:41:22;;;;;;;0.50;0.50;;;;;;;1.68;83.07;100079.91;5045414;28;20037;-64
2023/03/17 05:43:47;;;;;;;0.50;0.50;;;;;;;1.80;82.51;100070.78;5045198;28;20053;-65
2023/03/17 05:46:13;;;;;;;0.50;0.50;;;;;;;1.82;82.00;100081.94;5045137;28;20252;-64
2023/03/17 05:48:38;;;;;;;0.50;0.50;;;;;;;1.67;82.41;100067.97;5045284;28;20021;-63
2023/03/17 05:51:04;;;;;;;0.60;0.60;;;;;;;1.94;81.42;100063.41;5045449;28;20044;-64
2023/03/17 05:53:30;;;;;;;0.55;0.55;;;;;;;1.90;81.31;100062.47;5045253;28;20021;-64
2023/03/17 05:55:55;;;;;;;0.50;0.50;;;;;;;2.01;81.17;100059.28;5045327;28;20021;-64
2023/03/17 05:58:21;;;;;;;0.50;0.50;;;;;;;1.88;81.66;100059.03;5045409;28;20148;-65
2023/03/17 06:00:46;;;;;;;0.50;0.50;;;;;;;1.92;81.42;100059.94;5044522;28;20025;-66
2023/03/17 06:03:12;;;;;;;0.50;0.50;;;;;;;1.96;81.32;100042.13;5045397;28;20041;-64
2023/03/17 06:05:38;;;;;;;0.50;0.50;;;;;;;1.91;81.63;100058.22;5060305;28;20025;-64
2023/03/17 06:08:04;;;;;;;0.50;0.50;;;;;;;1.85;81.61;100048.72;5045147;28;20021;-66
2023/03/17 06:10:31;;;;;;;0.43;0.43;;;;;;;2.08;80.22;100046.63;5044930;28;20033;-63
2023/03/17 06:12:57;;;;;;;1.98;1.88;;;;;;;1.95;81.39;100037.00;5045075;28;20052;-65
2023/03/17 06:15:24;;;;;;;0.50;0.50;;;;;;;2.07;80.20;100041.47;5043786;28;20081;-63
2023/03/17 06:17:50;;;;;;;0.50;0.50;;;;;;;1.89;81.61;100050.50;5044695;28;20116;-64
2023/03/17 06:20:16;;;;;;;0.50;0.50;;;;;;;2.04;81.24;100052.53;5044967;28;20064;-65
2023/03/17 06:22:42;;;;;;;0.50;0.50;;;;;;;1.95;80.94;100055.75;5045115;28;20117;-69
2023/03/17 06:25:09;;;;;;;0.50;0.50;;;;;;;1.92;81.55;100049.69;5043885;28;20068;-66
2023/03/17 06:27:34;;;;;;;0.60;0.60;;;;;;;1.64;82.58;100038.88;5044793;28;20101;-68
2023/03/17 06:29:59;;;;;;;0.50;0.50;;;;;;;2.02;80.75;100041.38;5044418;28;20113;-69
2023/03/17 06:32:25;;;;;;;0.50;0.50;;;;;;;1.82;81.73;100053.78;5044851;28;20056;-69
2023/03/17 06:34:52;;;;;;;0.50;0.50;;;;;;;1.81;81.72;100037.53;5044352;28;20451;-68
2023/03/17 06:37:18;;;;;;;0.50;0.50;;;;;;;1.76;82.43;100064.72;5042888;28;20525;-66
2023/03/17 06:39:44;;;;;;;0.50;0.50;;;;;;;1.75;82.68;100062.13;5043121;28;20030;-68
2023/03/17 06:42:09;;;;;;;0.50;0.50;;;;;;;1.80;81.98;100058.88;5043404;28;20029;-67
2023/03/17 06:44:35;;;;;;;0.50;0.50;;;;;;;1.69;82.67;100066.28;5044785;28;20453;-66
2023/03/17 06:47:01;;;;;;;0.50;0.50;;;;;;;1.69;83.00;100066.28;5043244;28;20112;-66
2023/03/17 06:49:26;;;;;;;0.60;0.60;;;;;;;1.73;83.15;100070.66;5043930;28;20078;-66
2023/03/17 06:51:52;;;;;;;0.50;0.50;;;;;;;1.78;82.89;100065.63;5060092;28;20105;-65
2023/03/17 06:54:19;;;;;;;0.50;0.50;;;;;;;1.82;82.94;100064.00;5044777;28;20516;-65
2023/03/17 06:56:44;;;;;;;0.50;0.50;;;;;;;1.86;83.03;100081.16;5044996;28;20029;-67
2023/03/17 06:59:10;;;;;;;0.50;0.50;;;;;;;1.92;82.46;100060.81;5044778;28;20081;-64
2023/03/17 07:01:37;;;;;;;0.50;0.50;;;;;;;2.11;81.67;100045.81;5044387;28;20025;-62
2023/03/17 07:04:02;;;;;;;0.50;0.50;;;;;;;1.97;82.06;100064.34;5043926;28;20466;-66
2023/03/17 07:06:28;;;;;;;0.50;0.50;;;;;;;2.19;81.80;100043.44;5043253;28;20059;-63
2023/03/17 07:08:53;;;;;;;0.50;0.50;;;;;;;2.15;81.93;100045.06;5059484;28;20187;-64
2023/03/17 07:11:19;;;;;;;0.50;0.50;;;;;;;2.05;82.06;100041.44;5044874;28;20047;-63
2023/03/17 07:13:45;;;;;;;0.50;0.50;;;;;;;2.05;82.42;100022.66;5048432;28;20025;-64
2023/03/17 07:16:12;;;;;;;0.50;0.50;;;;;;;2.01;82.46;100031.13;5048153;28;20049;-65
2023/03/17 07:18:38;;;;;;;0.45;0.45;;;;;;;2.18;81.73;100026.31;5047775;28;20028;-63
2023/03/17 07:21:03;;;;;;;0.50;0.50;;;;;;;2.17;82.01;100004.97;5048167;28;20040;-63
2023/03/17 07:23:29;;;;;;;0.50;0.50;;;;;;;2.02;82.26;100008.09;5048255;28;20032;-64
2023/03/17 07:25:56;;;;;;;0.50;0.50;;;;;;;2.15;81.63;100018.59;5048062;28;20503;-64
2023/03/17 07:28:21;;;;;;;0.47;0.47;;;;;;;2.16;81.52;100023.75;5048286;28;20021;-65
2023/03/17 07:30:48;;;;;;;0.50;0.50;;;;;;;2.09;81.98;100015.06;5048166;28;20051;-64
2023/03/17 07:33:20;;;;;;;0.68;0.68;;;;;;;1.76;83.67;100028.06;5047700;28;20363;-66
2023/03/17 07:35:46;;;;;;;0.50;0.50;;;;;;;2.20;82.22;100020.41;5047785;28;20032;-64
2023/03/17 07:38:11;;;;;;;0.50;0.50;;;;;;;2.19;82.46;100023.78;5047864;28;20025;-65
2023/03/17 07:40:37;;;;;;;0.50;0.50;;;;;;;2.26;81.48;100021.34;5063000;28;20022;-65
2023/03/17 07:43:03;;;;;;;0.50;0.50;;;;;;;2.29;81.20;100019.72;5047837;28;20064;-67
2023/03/17 07:45:30;;;;;;;0.50;0.50;;;;;;;2.12;82.01;99998.91;5047631;28;20049;-64
2023/03/17 07:47:55;;;;;;;0.50;0.50;;;;;;;2.39;81.58;100014.78;5047401;28;20021;-66
2023/03/17 07:50:20;;;;;;;0.73;0.73;;;;;;;2.38;80.45;100018.19;5047656;28;20052;-64
2023/03/17 07:52:46;;;;;;;0.55;0.55;;;;;;;2.26;80.93;100019.66;5047707;28;20029;-63
2023/03/17 07:55:11;;;;;;;0.50;0.50;;;;;;;2.46;80.41;99991.84;5047502;28;20021;-65
2023/03/17 07:57:38;;;;;;;0.50;0.50;;;;;;;2.42;80.75;100002.00;5047288;28;20029;-64
2023/03/17 08:00:08;;;;;;;0.50;0.50;;;;;;;2.41;80.82;99975.53;5047476;28;20021;-66
2023/03/17 08:02:35;;;;;;;0.50;0.50;;;;;;;2.55;80.33;99980.03;5047255;28;20500;-66
2023/03/17 08:05:02;;;;;;;1.35;1.35;;;;;;;2.59;80.24;99981.81;5047560;28;20049;-64
2023/03/17 08:07:28;;;;;;;0.50;0.50;;;;;;;2.54;80.05;99989.41;5045943;28;20021;-63
2023/03/17 08:09:53;;;;;;;0.50;0.50;;;;;;;2.59;80.06;99976.69;5047236;28;20025;-63
2023/03/17 08:12:19;;;;;;;0.50;0.50;;;;;;;2.54;80.38;99973.19;5047224;28;20388;-66
2023/03/17 08:14:44;;;;;;;0.50;0.50;;;;;;;2.55;81.00;99987.72;5047242;28;20018;-63
2023/03/17 08:17:10;;;;;;;0.50;0.50;;;;;;;2.64;79.92;99987.00;5047010;28;20069;-64
2023/03/17 08:19:35;;;;;;;2.00;1.90;;;;;;;2.40;81.11;99986.63;5047052;28;20055;-63
2023/03/17 08:22:01;;;;;;;0.50;0.50;;;;;;;2.71;79.34;99982.03;5047022;28;20048;-66
2023/03/17 08:24:26;;;;;;;0.50;0.50;;;;;;;2.60;80.10;99983.56;5046505;28;20088;-66
2023/03/17 08:26:52;;;;;;;0.50;0.50;;;;;;;2.73;79.44;99982.06;5046921;28;20018;-67
2023/03/17 08:29:19;;;;;;;1.23;1.23;;;;;;;2.81;77.84;99977.06;5047012;28;20052;-66
2023/03/17 08:31:45;;;;;;;0.50;0.50;;;;;;;2.73;78.33;99967.53;5046983;28;20032;-66
2023/03/17 08:34:10;;;;;;;0.40;0.40;;;;;;;2.60;79.26;99979.28;5046736;28;20025;-65
2023/03/17 08:36:36;;;;;;;0.70;0.70;;;;;;;2.80;78.65;99957.38;5046583;28;20021;-67
2023/03/17 08:39:03;;;;;;;0.50;0.50;;;;;;;2.62;78.58;99968.22;5046687;28;20021;-63
2023/03/17 08:41:29;;;;;;;0.50;0.50;;;;;;;2.31;80.65;99978.75;5046594;28;20128;-63
2023/03/17 08:43:57;;;;;;;0.40;0.40;;;;;;;2.61;79.45;99969.91;5046730;28;20029;-64
2023/03/17 08:46:26;;;;;;;0.50;0.50;;;;;;;2.72;78.98;99965.81;5046494;28;20021;-71
2023/03/17 08:48:55;;;;;;;0.50;0.50;;;;;;;2.74;78.33;99965.84;5046385;28;20017;-68
2023/03/17 08:51:21;;;;;;;0.50;0.50;;;;;;;2.66;78.95;99958.03;5061686;28;20088;-67
2023/03/17 08:53:47;;;;;;;0.50;0.50;;;;;;;2.61;79.63;99959.66;5046420;28;20052;-67
2023/03/17 08:56:14;;;;;;;1.50;1.40;;;;;;;2.52;79.94;99955.25;5046361;28;20141;-66
2023/03/17 08:58:41;;;;;;;0.80;0.80;;;;;;;2.55;79.55;99947.59;5046461;28;20045;-67
2023/03/17 09:01:09;;;;;;;0.50;0.50;;;;;;;2.51;80.74;99943.25;5046171;28;20060;-69
2023/03/17 09:03:35;;;;;;;0.60;0.60;;;;;;;2.60;80.39;99951.09;5045953;28;20108;-67
2023/03/17 09:06:04;;;;;;;1.90;1.80;;;;;;;2.61;80.83;99946.81;5046133;28;20106;-70
2023/03/17 09:08:30;;;;;;;0.50;0.50;;;;;;;2.57;80.55;99952.75;5046157;28;20028;-70
2023/03/17 09:10:55;;;;;;;1.13;1.05;;;;;;;2.82;78.97;99958.28;5046158;28;20025;-66
2023/03/17 09:13:21;;;;;;;0.50;0.50;;;;;;;2.76;79.73;99950.50;5061523;28;20091;-65
2023/03/17 09:15:47;;;;;;;0.50;0.50;;;;;;;2.83;79.02;99942.03;5045742;28;20037;-66
2023/03/17 09:18:13;;;;;;;0.50;0.50;;;;;;;2.73;79.48;99933.38;5061077;28;20036;-67
2023/03/17 09:20:39;;;;;;;0.50;0.50;;;;;;;2.79;79.79;99948.84;5046153;28;20040;-69
2023/03/17 09:23:07;;;;;;;0.60;0.60;;;;;;;2.84;79.18;99944.63;5045964;28;20029;-69
2023/03/17 09:25:37;;;;;;;0.50;0.50;;;;;;;2.77;80.08;99932.56;5046034;28;20473;-70
2023/03/17 09:28:03;;;;;;;0.50;0.50;;;;;;;2.54;80.75;99938.16;5045928;28;20120;-64
2023/03/17 09:30:29;;;;;;;0.50;0.50;;;;;;;2.58;81.18;99939.09;5044582;28;20048;-65
2023/03/17 09:32:55;;;;;;;0.50;0.50;;;;;;;2.72;80.76;99932.50;5061247;28;20033;-64
2023/03/17 09:35:21;;;;;;;0.82;0.82;;;;;;;2.64;80.88;99917.81;5044886;28;20018;-64
2023/03/17 09:37:47;;;;;;;0.50;0.50;;;;;;;2.68;80.65;99923.03;5045664;28;20049;-65
2023/03/17 09:40:17;;;;;;;0.50;0.50;;;;;;;2.72;81.52;99916.25;5045578;28;20021;-69
2023/03/17 09:42:48;;;;;;;0.50;0.50;;;;;;;2.75;81.03;99947.06;5045601;28;20025;-67
2023/03/17 09:45:31;;;;;;;0.70;0.70;;;;;;;2.75;81.34;99921.41;5045817;28;20021;-67
2023/03/17 09:48:28;;;;;;;0.50;0.50;;;;;;;2.73;81.71;99933.38;5045375;28;20481;-68
2023/03/17 09:50:56;;;;;;;0.50;0.50;;;;;;;2.68;81.88;99917.03;5045484;28;20029;-69
2023/03/17 09:53:26;;;;;;;1.15;1.15;;;;;;;2.88;80.57;99911.34;5045620;28;20075;-68
2023/03/17 09:55:56;;;;;;;0.50;0.50;;;;;;;2.91;80.53;99927.66;5045394;28;20017;-67
2023/03/17 09:58:30;;;;;;;0.50;0.50;;;;;;;3.04;80.21;99922.69;5060739;28;20052;-67
2023/03/17 10:00:55;;;;;;;0.55;0.55;;;;;;;2.94;80.21;99904.63;5045354;28;20080;-67
2023/03/17 10:03:22;;;;;;;2.47;2.38;;;;;;;2.79;80.54;99876.19;5045033;28;20028;-67
2023/03/17 10:05:47;;;;;;;0.98;0.93;;;;;;;2.89;80.79;99913.94;5045273;28;20355;-68
2023/03/17 10:08:30;;;;;;;0.50;0.50;;;;;;;3.00;80.51;99911.56;5045323;28;20104;-68
2023/03/17 10:10:56;;;;;;;0.45;0.45;;;;;;;3.14;79.93;99891.22;5045178;28;20033;-67
2023/03/17 10:13:21;;;;;;;0.50;0.50;;;;;;;3.01;80.11;99887.63;5060589;28;20033;-65
2023/03/17 10:16:00;;;;;;;0.50;0.50;;;;;;;3.01;80.76;99859.41;5045049;28;20042;-69
2023/03/17 10:18:31;;;;;;;0.50;0.50;;;;;;;3.29;79.05;99869.19;5044946;28;20030;-68
2023/03/17 10:21:03;;;;;;;7.38;5.47;;;;;;;3.25;79.89;99883.66;5045283;28;20025;-71
2023/03/17 10:23:32;;;;;;;0.50;0.50;;;;;;;3.26;79.02;99900.78;5045319;28;20025;-64
2023/03/17 10:26:12;;;;;;;0.88;0.88;;;;;;;3.39;79.04;99899.22;5044970;28;20024;-66
2023/03/17 10:28:38;;;;;;;0.50;0.50;;;;;;;3.41;79.73;99886.41;5045090;28;20029;-69
2023/03/17 10:31:18;;;;;;;0.40;0.40;;;;;;;3.59;78.48;99885.78;5045098;28;20385;-72
2023/03/17 10:33:47;;;;;;;0.90;0.90;;;;;;;3.53;77.58;99888.28;5043464;28;20022;-66
2023/03/17 10:36:15;;;;;;;1.38;1.30;;;;;;;3.54;77.89;99877.19;5044838;28;20025;-68
2023/03/17 10:38:50;;;;;;;0.50;0.50;;;;;;;3.66;77.64;99876.47;5044851;28;20488;-65
2023/03/17 10:41:16;;;;;;;0.50;0.50;;;;;;;3.70;76.84;99857.69;5045116;28;20057;-66
2023/03/17 10:43:45;;;;;;;0.50;0.50;;;;;;;3.84;76.30;99875.78;5043795;28;20088;-65
2023/03/17 10:46:23;;;;;;;2.35;2.22;;;;;;;4.03;74.54;99860.56;5044442;28;20022;-70
2023/03/17 10:48:55;;;;;;;0.50;0.50;;;;;;;3.86;75.54;99860.41;5048744;28;20028;-65
2023/03/17 10:51:30;;;;;;;0.50;0.50;;;;;;;3.89;74.95;99853.59;5048683;28;20171;-66
2023/03/17 10:53:59;;;;;;;0.50;0.50;;;;;;;4.04;74.17;99847.72;5048700;28;20052;-66
2023/03/17 10:56:35;;;;;;;0.50;0.50;;;;;;;3.91;74.51;99838.19;5048613;28;20032;-65
2023/03/17 10:59:31;;;;;;;0.50;0.50;;;;;;;3.87;74.79;99834.72;5048483;28;20030;-71
2023/03/17 11:02:04;;;;;;;0.50;0.50;;;;;;;4.07;74.01;99821.22;5046106;28;20041;-67
2023/03/17 11:04:38;;;;;;;0.50;0.50;;;;;;;4.14;73.18;99817.00;5063685;28;20069;-68
2023/03/17 11:07:09;;;;;;;0.50;0.50;;;;;;;4.11;73.83;99833.25;5047467;28;20056;-65
2023/03/17 11:09:36;;;;;;;0.70;0.70;;;;;;;3.97;74.93;99826.28;5048013;28;20153;-65
2023/03/17 11:12:19;;;;;;;0.50;0.50;;;;;;;4.45;73.15;99824.94;5048372;28;20104;-70
2023/03/17 11:14:47;;;;;;;2.85;2.70;;;;;;;4.52;72.02;99829.28;5048298;28;20036;-68
2023/03/17 11:17:30;;;;;;;0.60;0.60;;;;;;;4.64;72.25;99838.81;5047936;28;20099;-65
2023/03/17 11:20:04;;;;;;;0.50;0.50;;;;;;;4.66;72.24;99841.38;5048414;28;20477;-64
2023/03/17 11:22:40;;;;;;;0.60;0.60;;;;;;;4.75;71.89;99848.28;5048135;28;20060;-66
2023/03/17 11:25:18;;;;;;;0.50;0.50;;;;;;;4.58;72.35;99833.63;5048012;28;20021;-65
2023/03/17 11:27:46;;;;;;;0.50;0.50;;;;;;;4.49;74.21;99851.56;5048090;28;20385;-64
2023/03/17 11:30:21;;;;;;;0.55;0.55;;;;;;;4.88;72.60;99856.94;5048107;28;20032;-64
2023/03/17 11:33:23;;;;;;;0.60;0.60;;;;;;;5.21;70.27;99839.97;5048069;28;20025;-67
2023/03/17 11:36:13;;;;;;;0.60;0.60;;;;;;;5.15;70.88;99838.22;5046774;28;20029;-67
2023/03/17 11:39:06;;;;;;;0.50;0.50;;;;;;;5.15;69.08;99816.78;5047836;28;20025;-65